Time;durP1;ratioP1;P1;durP2;ratioP2;P2;SDS_P1;SDS_P2;PMS_P1;PMS_P2;Temp;Humidity;BMP_temperature;BMP_pressure;BME280_temperature;BME280_humidity;BME280_pressure;Samples;Min_cycle;Max_cycle;Signal;HPM_P1;HPM_P2
2021/05/14 00:00:31;;;;;;;;;;;;;;;;;;5041641;28;20007;-68
2021/05/14 00:02:59;;;;;;;;;;;;;;;;;;5049770;28;19925;-68
2021/05/14 00:05:25;;;;;;;;;;;;;;;;;;5050194;28;19957;-68
2021/05/14 00:07:52;;;;;;;;;;;;;;;;;;5050847;28;20023;-68
2021/05/14 00:10:18;;;;;;;;;;;;;;;;;;5050089;28;19978;-68
2021/05/14 00:12:44;;;;;;;;;;;;;;;;;;5048357;28;20381;-68
2021/05/14 00:15:11;;;;;;;;;;;;;;;;;;5043471;28;19925;-68
2021/05/14 00:17:37;;;;;;;;;;;;;;;;;;5049613;28;19978;-66
2021/05/14 00:20:04;;;;;;;;;;;;;;;;;;5049518;28;19968;-68
2021/05/14 00:22:30;;;;;;;;;;;;;;;;;;5050187;28;19925;-68
2021/05/14 00:24:57;;;;;;;;;;;;;;;;;;5049236;28;19979;-66
2021/05/14 00:27:23;;;;;;;;;;;;;;;;;;5049074;28;19925;-67
2021/05/14 00:29:50;;;;;;;;;;;;;;;;;;5048935;28;19929;-66
2021/05/14 00:32:16;;;;;;;;;;;;;;;;;;5050139;28;19928;-66
2021/05/14 00:34:42;;;;;;;;;;;;;;;;;;5048773;28;19925;-66
2021/05/14 00:37:09;;;;;;;;;;;;;;;;;;5049329;28;20012;-68
2021/05/14 00:39:35;;;;;;;;;;;;;;;;;;5049707;28;19932;-66
2021/05/14 00:42:02;;;;;;;;;;;;;;;;;;5049471;28;19928;-65
2021/05/14 00:44:28;;;;;;;;;;;;;;;;;;5050111;28;20324;-66
2021/05/14 00:46:56;;;;;;;;;;;;;;;;;;5074081;22;21614;-65
2021/05/14 00:49:22;;;;;;;;;;;;;;;;;;5058934;28;19977;-66
2021/05/14 00:51:49;;;;;;;;;;;;;;;;;;5058006;28;19928;-66
2021/05/14 00:54:15;;;;;;;;;;;;;;;;;;5069087;28;20026;-66
2021/05/14 00:56:42;;;;;;;;;;;;;;;;;;5062591;28;19931;-66
2021/05/14 00:59:08;;;;;;;;;;;;;;;;;;5062054;28;20365;-65
2021/05/14 01:01:35;;;;;;;;;;;;;;;;;;5059823;28;20007;-66
2021/05/14 01:04:01;;;;;;;;;;;;;;;;;;5061566;28;20015;-66
2021/05/14 01:06:28;;;;;;;;;;;;;;;;;;5057717;28;19925;-65
2021/05/14 01:08:54;;;;;;;;;;;;;;;;;;5064399;28;19925;-66
2021/05/14 01:11:21;;;;;;;;;;;;;;;;;;5066967;28;19925;-63
2021/05/14 01:13:47;;;;;;;;;;;;;;;;;;5068755;28;19924;-64
2021/05/14 01:16:13;;;;;;;;;;;;;;;;;;5063686;28;19932;-64
2021/05/14 01:18:40;;;;;;;;;;;;;;;;;;5062257;28;20402;-64
2021/05/14 01:21:06;;;;;;;;;;;;;;;;;;5064163;28;19924;-65
2021/05/14 01:23:33;;;;;;;;;;;;;;;;;;5060676;28;19928;-64
2021/05/14 01:25:59;;;;;;;;;;;;;;;;;;5062341;28;19985;-64
2021/05/14 01:28:26;;;;;;;;;;;;;;;;;;5059910;28;19924;-66
2021/05/14 01:30:53;;;;;;;;;;;;;;;;;;5064367;28;19931;-66
2021/05/14 01:33:20;;;;;;;;;;;;;;;;;;5056441;28;19924;-66
2021/05/14 01:35:46;;;;;;;;;;;;;;;;;;5064085;28;19924;-66
2021/05/14 01:38:13;;;;;;;;;;;;;;;;;;5070358;28;19943;-66
2021/05/14 01:40:40;;;;;;;;;;;;;;;;;;5068887;28;20015;-65
2021/05/14 01:43:07;;;;;;;;;;;;;;;;;;5067093;28;19924;-67
2021/05/14 01:45:33;;;;;;;;;;;;;;;;;;5066636;28;19924;-65
2021/05/14 01:47:59;;;;;;;;;;;;;;;;;;5069944;28;19925;-65
2021/05/14 01:50:26;;;;;;;;;;;;;;;;;;5064105;28;19924;-65
2021/05/14 01:52:52;;;;;;;;;;;;;;;;;;5068429;28;19970;-69
2021/05/14 01:55:19;;;;;;;;;;;;;;;;;;5067647;28;19943;-66
2021/05/14 01:57:45;;;;;;;;;;;;;;;;;;5072505;28;19924;-66
2021/05/14 02:00:12;;;;;;;;;;;;;;;;;;5070408;28;19925;-65
2021/05/14 02:02:38;;;;;;;;;;;;;;;;;;5072071;28;19981;-65
2021/05/14 02:05:05;;;;;;;;;;;;;;;;;;5064598;28;19948;-66
2021/05/14 02:07:31;;;;;;;;;;;;;;;;;;5062870;28;19929;-65
2021/05/14 02:09:58;;;;;;;;;;;;;;;;;;5068895;28;19977;-65
2021/05/14 02:12:24;;;;;;;;;;;;;;;;;;5058287;28;20015;-65
2021/05/14 02:14:51;;;;;;;;;;;;;;;;;;5063959;28;19954;-66
2021/05/14 02:17:17;;;;;;;;;;;;;;;;;;5066858;28;19925;-66
2021/05/14 02:19:44;;;;;;;;;;;;;;;;;;5070680;28;20307;-66
2021/05/14 02:22:10;;;;;;;;;;;;;;;;;;5070910;28;20405;-66
2021/05/14 02:24:37;;;;;;;;;;;;;;;;;;5067862;28;19928;-66
2021/05/14 02:27:04;;;;;;;;;;;;;;;;;;5068564;28;20023;-66
2021/05/14 02:29:33;;;;;;;;;;;;;;;;;;5071360;28;20300;-66
2021/05/14 02:32:00;;;;;;;;;;;;;;;;;;5065640;28;19947;-66
2021/05/14 02:34:26;;;;;;;;;;;;;;;;;;5059764;28;19924;-66
2021/05/14 02:36:53;;;;;;;;;;;;;;;;;;5062834;28;19925;-64
2021/05/14 02:39:19;;;;;;;;;;;;;;;;;;5072170;28;19924;-65
2021/05/14 02:41:46;;;;;;;;;;;;;;;;;;5066751;28;19989;-67
2021/05/14 02:44:12;;;;;;;;;;;;;;;;;;5063777;28;19970;-66
2021/05/14 02:46:38;;;;;;;;;;;;;;;;;;5069382;28;19928;-66
2021/05/14 02:49:05;;;;;;;;;;;;;;;;;;5071706;28;19931;-67
2021/05/14 02:51:32;;;;;;;;;;;;;;;;;;5064430;28;20358;-66
2021/05/14 02:53:58;;;;;;;;;;;;;;;;;;5072243;28;20343;-67
2021/05/14 02:56:25;;;;;;;;;;;;;;;;;;5062065;28;21442;-67
2021/05/14 02:58:51;;;;;;;;;;;;;;;;;;5064115;28;20385;-66
2021/05/14 03:01:18;;;;;;;;;;;;;;;;;;5065400;28;19970;-64
2021/05/14 03:03:44;;;;;;;;;;;;;;;;;;5064595;28;19925;-64
2021/05/14 03:06:11;;;;;;;;;;;;;;;;;;5067805;28;19938;-66
2021/05/14 03:08:37;;;;;;;;;;;;;;;;;;5057079;28;19925;-69
2021/05/14 03:11:03;;;;;;;;;;;;;;;;;;5070049;28;20015;-64
2021/05/14 03:13:30;;;;;;;;;;;;;;;;;;5069912;28;20388;-64
2021/05/14 03:15:56;;;;;;;;;;;;;;;;;;5060949;28;20296;-64
2021/05/14 03:18:23;;;;;;;;;;;;;;;;;;5070977;28;20287;-64
2021/05/14 03:20:49;;;;;;;;;;;;;;;;;;5070818;28;19925;-65
2021/05/14 03:23:16;;;;;;;;;;;;;;;;;;5067196;28;19925;-65
2021/05/14 03:25:42;;;;;;;;;;;;;;;;;;5065427;28;19974;-66
2021/05/14 03:28:08;;;;;;;;;;;;;;;;;;5065742;28;19936;-64
2021/05/14 03:30:37;;;;;;;;;;;;;;;;;;5058716;28;19924;-66
2021/05/14 03:33:04;;;;;;;;;;;;;;;;;;5065960;28;20303;-66
2021/05/14 03:35:30;;;;;;;;;;;;;;;;;;5070958;28;19928;-65
2021/05/14 03:37:57;;;;;;;;;;;;;;;;;;5068818;28;19925;-66
2021/05/14 03:40:33;;;;;;;;;;;;;;;;;;5064184;28;19942;-66
2021/05/14 03:42:59;;;;;;;;;;;;;;;;;;5065256;28;19954;-66
2021/05/14 03:45:26;;;;;;;;;;;;;;;;;;5066316;28;19952;-65
2021/05/14 03:47:52;;;;;;;;;;;;;;;;;;5066965;28;19929;-65
2021/05/14 03:50:19;;;;;;;;;;;;;;;;;;5059049;28;19936;-65
2021/05/14 03:52:45;;;;;;;;;;;;;;;;;;5066650;28;19978;-65
2021/05/14 03:55:12;;;;;;;;;;;;;;;;;;5061061;28;19932;-67
2021/05/14 03:57:38;;;;;;;;;;;;;;;;;;5057310;28;19929;-67
2021/05/14 04:00:05;;;;;;;;;;;;;;;;;;5067830;28;20434;-66
2021/05/14 04:02:31;;;;;;;;;;;;;;;;;;5059032;28;19932;-65
2021/05/14 04:04:58;;;;;;;;;;;;;;;;;;5063764;28;19929;-65
2021/05/14 04:07:25;;;;;;;;;;;;;;;;;;5070791;28;19931;-65
2021/05/14 04:10:00;;;;;;;;;;;;;;;;;;5056050;28;19925;-65
2021/05/14 04:15:11;;;;;;;;;;;;;;;;;;5062292;28;19923;-66
2021/05/14 04:17:38;;;;;;;;;;;;;;;;;;5069249;28;19991;-65
2021/05/14 04:20:04;;;;;;;;;;;;;;;;;;5061072;28;20024;-66
2021/05/14 04:22:31;;;;;;;;;;;;;;;;;;5060897;28;19939;-66
2021/05/14 04:24:58;;;;;;;;;;;;;;;;;;5068754;28;19924;-66
2021/05/14 04:27:25;;;;;;;;;;;;;;;;;;5065696;28;19936;-65
2021/05/14 04:29:52;;;;;;;;;;;;;;;;;;5060245;28;20037;-65
2021/05/14 04:32:20;;;;;;;;;;;;;;;;;;5068889;28;19940;-66
2021/05/14 04:34:47;;;;;;;;;;;;;;;;;;5057438;28;20013;-66
2021/05/14 04:37:14;;;;;;;;;;;;;;;;;;5057452;28;19933;-66
2021/05/14 04:39:41;;;;;;;;;;;;;;;;;;5062539;28;19929;-66
2021/05/14 04:42:08;;;;;;;;;;;;;;;;;;5056828;28;19924;-66
2021/05/14 04:44:34;;;;;;;;;;;;;;;;;;5062925;28;19932;-66
2021/05/14 04:47:01;;;;;;;;;;;;;;;;;;5061409;28;19932;-65
2021/05/14 04:49:27;;;;;;;;;;;;;;;;;;5063467;28;19924;-66
2021/05/14 04:51:54;;;;;;;;;;;;;;;;;;5064377;28;19924;-66
2021/05/14 04:54:20;;;;;;;;;;;;;;;;;;5061959;28;19924;-65
2021/05/14 04:56:47;;;;;;;;;;;;;;;;;;5063773;28;19947;-67
2021/05/14 04:59:13;;;;;;;;;;;;;;;;;;5055135;28;20368;-66
2021/05/14 05:01:40;;;;;;;;;;;;;;;;;;5064372;28;19928;-66
2021/05/14 05:04:06;;;;;;;;;;;;;;;;;;5058111;28;20289;-64
2021/05/14 05:06:33;;;;;;;;;;;;;;;;;;5065949;28;19925;-64
2021/05/14 05:09:00;;;;;;;;;;;;;;;;;;5060607;28;19932;-66
2021/05/14 05:11:26;;;;;;;;;;;;;;;;;;5059051;28;19940;-67
2021/05/14 05:13:53;;;;;;;;;;;;;;;;;;5062125;28;19928;-67
2021/05/14 05:16:19;;;;;;;;;;;;;;;;;;5061226;28;20266;-65
2021/05/14 05:18:46;;;;;;;;;;;;;;;;;;5065245;28;20399;-63
2021/05/14 05:21:12;;;;;;;;;;;;;;;;;;5062458;28;19963;-66
2021/05/14 05:23:38;;;;;;;;;;;;;;;;;;5064328;28;19932;-65
2021/05/14 05:26:05;;;;;;;;;;;;;;;;;;5062300;28;19925;-64
2021/05/14 05:28:32;;;;;;;;;;;;;;;;;;5055687;28;19932;-65
2021/05/14 05:30:58;;;;;;;;;;;;;;;;;;5064421;28;20189;-66
2021/05/14 05:33:25;;;;;;;;;;;;;;;;;;5063474;28;20324;-66
2021/05/14 05:35:51;;;;;;;;;;;;;;;;;;5061325;28;20027;-65
2021/05/14 05:38:18;;;;;;;;;;;;;;;;;;5058909;28;19978;-65
2021/05/14 05:40:44;;;;;;;;;;;;;;;;;;5064364;28;19943;-65
2021/05/14 05:43:11;;;;;;;;;;;;;;;;;;5059467;28;20041;-66
2021/05/14 05:45:37;;;;;;;;;;;;;;;;;;5057753;28;20388;-66
2021/05/14 05:48:04;;;;;;;;;;;;;;;;;;5058031;28;19936;-65
2021/05/14 05:50:30;;;;;;;;;;;;;;;;;;5058677;28;20006;-66
2021/05/14 05:52:57;;;;;;;;;;;;;;;;;;5059319;28;20023;-65
2021/05/14 05:55:23;;;;;;;;;;;;;;;;;;5063294;28;20011;-66
2021/05/14 05:57:49;;;;;;;;;;;;;;;;;;5063822;28;19924;-66
2021/05/14 06:00:16;;;;;;;;;;;;;;;;;;5064020;28;19925;-66
2021/05/14 06:02:42;;;;;;;;;;;;;;;;;;5060376;28;19925;-66
2021/05/14 06:05:09;;;;;;;;;;;;;;;;;;5054466;28;19933;-66
2021/05/14 06:07:36;;;;;;;;;;;;;;;;;;5056769;28;20273;-65
2021/05/14 06:10:02;;;;;;;;;;;;;;;;;;5060189;28;20304;-66
2021/05/14 06:12:29;;;;;;;;;;;;;;;;;;5062712;28;19989;-64
2021/05/14 06:14:56;;;;;;;;;;;;;;;;;;5055039;28;20019;-67
2021/05/14 06:17:22;;;;;;;;;;;;;;;;;;5052695;28;20023;-69
2021/05/14 06:19:52;;;;;;;;;;;;;;;;;;5051622;28;19952;-65
2021/05/14 06:22:18;;;;;;;;;;;;;;;;;;5061494;28;19932;-63
2021/05/14 06:24:45;;;;;;;;;;;;;;;;;;5064085;28;19932;-66
2021/05/14 06:27:11;;;;;;;;;;;;;;;;;;5064870;28;19925;-64
2021/05/14 06:29:38;;;;;;;;;;;;;;;;;;5063418;28;19964;-63
2021/05/14 06:32:04;;;;;;;;;;;;;;;;;;5067507;28;19925;-65
2021/05/14 06:34:31;;;;;;;;;;;;;;;;;;5067315;28;19932;-64
2021/05/14 06:36:57;;;;;;;;;;;;;;;;;;5062166;28;19975;-64
2021/05/14 06:39:24;;;;;;;;;;;;;;;;;;5068628;28;19946;-65
2021/05/14 06:41:50;;;;;;;;;;;;;;;;;;5063986;28;19924;-65
2021/05/14 06:44:16;;;;;;;;;;;;;;;;;;5067249;28;19925;-67
2021/05/14 06:46:44;;;;;;;;;;;;;;;;;;5083200;22;19925;-67
2021/05/14 06:49:11;;;;;;;;;;;;;;;;;;5076120;28;19924;-66
2021/05/14 06:51:37;;;;;;;;;;;;;;;;;;5077970;28;19928;-67
2021/05/14 06:54:04;;;;;;;;;;;;;;;;;;5073700;28;20295;-66
2021/05/14 06:56:30;;;;;;;;;;;;;;;;;;5063851;28;19939;-66
2021/05/14 06:58:57;;;;;;;;;;;;;;;;;;5058744;28;19925;-67
2021/05/14 07:01:23;;;;;;;;;;;;;;;;;;5056405;28;19925;-68
2021/05/14 07:03:50;;;;;;;;;;;;;;;;;;5065053;28;19928;-68
2021/05/14 07:06:16;;;;;;;;;;;;;;;;;;5059530;28;19977;-67
2021/05/14 07:08:43;;;;;;;;;;;;;;;;;;5060248;28;19978;-68
2021/05/14 07:11:09;;;;;;;;;;;;;;;;;;5066382;28;19929;-68
2021/05/14 07:13:36;;;;;;;;;;;;;;;;;;5061525;28;19970;-68
2021/05/14 07:16:02;;;;;;;;;;;;;;;;;;5061632;28;19992;-68
2021/05/14 07:18:29;;;;;;;;;;;;;;;;;;5060445;28;19928;-68
2021/05/14 07:20:55;;;;;;;;;;;;;;;;;;5063031;28;19928;-68
2021/05/14 07:23:22;;;;;;;;;;;;;;;;;;5063586;28;19947;-68
2021/05/14 07:25:49;;;;;;;;;;;;;;;;;;5064659;28;19925;-68
2021/05/14 07:28:15;;;;;;;;;;;;;;;;;;5062741;28;19932;-69
2021/05/14 07:30:41;;;;;;;;;;;;;;;;;;5064466;28;19925;-67
2021/05/14 07:33:08;;;;;;;;;;;;;;;;;;5062367;28;19924;-66
2021/05/14 07:35:34;;;;;;;;;;;;;;;;;;5058210;28;19933;-67
2021/05/14 07:38:01;;;;;;;;;;;;;;;;;;5063359;28;19928;-67
2021/05/14 07:40:27;;;;;;;;;;;;;;;;;;5060481;28;19924;-68
2021/05/14 07:42:54;;;;;;;;;;;;;;;;;;5061785;28;19969;-68
2021/05/14 07:45:20;;;;;;;;;;;;;;;;;;5061006;28;19932;-68
2021/05/14 07:47:47;;;;;;;;;;;;;;;;;;5061981;28;19932;-69
2021/05/14 07:50:13;;;;;;;;;;;;;;;;;;5060100;28;19947;-69
2021/05/14 07:52:40;;;;;;;;;;;;;;;;;;5063984;28;19924;-70
2021/05/14 07:55:06;;;;;;;;;;;;;;;;;;5058937;28;19925;-67
2021/05/14 07:57:33;;;;;;;;;;;;;;;;;;5063918;28;19931;-69
2021/05/14 07:59:59;;;;;;;;;;;;;;;;;;5062270;28;19999;-71
2021/05/14 08:02:26;;;;;;;;;;;;;;;;;;5060457;28;19968;-71
2021/05/14 08:04:53;;;;;;;;;;;;;;;;;;5063565;28;19925;-73
2021/05/14 08:07:19;;;;;;;;;;;;;;;;;;5059901;28;19924;-72
2021/05/14 08:09:46;;;;;;;;;;;;;;;;;;5060597;28;19943;-72
2021/05/14 08:12:12;;;;;;;;;;;;;;;;;;5061868;28;19938;-74
2021/05/14 08:14:39;;;;;;;;;;;;;;;;;;5057698;28;19932;-71
2021/05/14 08:17:05;;;;;;;;;;;;;;;;;;5064223;28;20011;-72
2021/05/14 08:19:32;;;;;;;;;;;;;;;;;;5059509;28;20384;-70
2021/05/14 08:21:59;;;;;;;;;;;;;;;;;;5063961;28;19925;-70
2021/05/14 08:24:25;;;;;;;;;;;;;;;;;;5060619;28;19932;-71
2021/05/14 08:26:51;;;;;;;;;;;;;;;;;;5063413;28;20387;-72
2021/05/14 08:29:18;;;;;;;;;;;;;;;;;;5061319;28;20296;-70
2021/05/14 08:31:44;;;;;;;;;;;;;;;;;;5057725;28;20019;-71
2021/05/14 08:34:11;;;;;;;;;;;;;;;;;;5061618;28;20324;-72
2021/05/14 08:36:37;;;;;;;;;;;;;;;;;;5061462;28;20185;-72
2021/05/14 08:39:04;;;;;;;;;;;;;;;;;;5061251;28;19947;-71
2021/05/14 08:41:30;;;;;;;;;;;;;;;;;;5056190;28;20028;-71
2021/05/14 08:43:57;;;;;;;;;;;;;;;;;;5060856;28;19938;-70
2021/05/14 08:46:23;;;;;;;;;;;;;;;;;;5059139;28;19931;-70
2021/05/14 08:48:50;;;;;;;;;;;;;;;;;;5059815;28;20010;-70
2021/05/14 08:51:19;;;;;;;;;;;;;;;;;;5063166;28;19939;-71
2021/05/14 08:53:46;;;;;;;;;;;;;;;;;;5061764;28;19934;-70
2021/05/14 08:56:12;;;;;;;;;;;;;;;;;;5061471;28;19929;-70
2021/05/14 08:58:40;;;;;;;;;;;;;;;;;;5060699;28;19960;-70
2021/05/14 09:01:06;;;;;;;;;;;;;;;;;;5061033;28;19929;-71
2021/05/14 09:03:33;;;;;;;;;;;;;;;;;;5061431;28;19924;-71
2021/05/14 09:06:00;;;;;;;;;;;;;;;;;;5059504;28;20027;-70
2021/05/14 09:08:27;;;;;;;;;;;;;;;;;;5060699;28;19925;-70
2021/05/14 09:10:54;;;;;;;;;;;;;;;;;;5060095;28;19956;-69
2021/05/14 09:13:20;;;;;;;;;;;;;;;;;;5059425;28;19924;-69
2021/05/14 09:15:47;;;;;;;;;;;;;;;;;;5056155;28;20027;-68
2021/05/14 09:18:13;;;;;;;;;;;;;;;;;;5063997;28;20380;-70
2021/05/14 09:20:40;;;;;;;;;;;;;;;;;;5058424;28;20023;-73
2021/05/14 09:23:06;;;;;;;;;;;;;;;;;;5061741;28;20376;-71
2021/05/14 09:25:33;;;;;;;;;;;;;;;;;;5058102;28;19925;-71
2021/05/14 09:27:59;;;;;;;;;;;;;;;;;;5064744;28;19925;-71
2021/05/14 09:30:26;;;;;;;;;;;;;;;;;;5061006;28;19932;-71
2021/05/14 09:32:52;;;;;;;;;;;;;;;;;;5062877;28;19934;-71
2021/05/14 09:35:19;;;;;;;;;;;;;;;;;;5059177;28;19925;-71
2021/05/14 09:37:45;;;;;;;;;;;;;;;;;;5060275;28;19928;-71
2021/05/14 09:40:12;;;;;;;;;;;;;;;;;;5062462;28;19936;-71
2021/05/14 09:42:38;;;;;;;;;;;;;;;;;;5063628;28;19933;-76
2021/05/14 09:45:05;;;;;;;;;;;;;;;;;;5061102;28;19935;-71
2021/05/14 09:47:31;;;;;;;;;;;;;;;;;;5059736;28;19925;-71
2021/05/14 09:49:58;;;;;;;;;;;;;;;;;;5060299;28;19925;-72
2021/05/14 09:52:24;;;;;;;;;;;;;;;;;;5056734;28;20015;-69
2021/05/14 09:54:51;;;;;;;;;;;;;;;;;;5057349;28;19947;-67
2021/05/14 09:57:21;;;;;;;;;;;;;;;;;;5064992;28;20016;-65
2021/05/14 09:59:47;;;;;;;;;;;;;;;;;;5063450;28;19924;-66
2021/05/14 10:02:14;;;;;;;;;;;;;;;;;;5062076;28;19925;-65
2021/05/14 10:04:41;;;;;;;;;;;;;;;;;;5063035;28;20449;-66
2021/05/14 10:07:07;;;;;;;;;;;;;;;;;;5063024;28;19955;-66
2021/05/14 10:09:35;;;;;;;;;;;;;;;;;;5063987;28;20035;-66
2021/05/14 10:12:02;;;;;;;;;;;;;;;;;;5067314;28;19977;-66
2021/05/14 10:14:28;;;;;;;;;;;;;;;;;;5063636;28;20579;-68
2021/05/14 10:16:55;;;;;;;;;;;;;;;;;;5062053;28;19981;-69
2021/05/14 10:19:21;;;;;;;;;;;;;;;;;;5062558;28;20437;-69
2021/05/14 10:21:48;;;;;;;;;;;;;;;;;;5065313;28;19925;-69
2021/05/14 10:24:14;;;;;;;;;;;;;;;;;;5066067;28;19934;-68
2021/05/14 10:26:42;;;;;;;;;;;;;;;;;;5062234;28;20288;-70
2021/05/14 10:29:09;;;;;;;;;;;;;;;;;;5063951;28;19932;-70
2021/05/14 10:31:35;;;;;;;;;;;;;;;;;;5064598;28;19928;-70
2021/05/14 10:34:02;;;;;;;;;;;;;;;;;;5062685;28;19963;-71
2021/05/14 10:36:32;;;;;;;;;;;;;;;;;;5063401;28;20015;-71
2021/05/14 10:38:58;;;;;;;;;;;;;;;;;;5062516;28;19925;-72
2021/05/14 10:41:25;;;;;;;;;;;;;;;;;;5061523;28;19939;-71
2021/05/14 10:43:51;;;;;;;;;;;;;;;;;;5061801;28;19931;-70
2021/05/14 10:46:18;;;;;;;;;;;;;;;;;;5064894;28;20330;-70
2021/05/14 10:48:44;;;;;;;;;;;;;;;;;;5068102;28;20007;-71
2021/05/14 10:51:11;;;;;;;;;;;;;;;;;;5056734;28;19940;-72
2021/05/14 10:53:37;;;;;;;;;;;;;;;;;;5062083;28;20380;-72
2021/05/14 10:56:04;;;;;;;;;;;;;;;;;;5065019;28;20095;-73
2021/05/14 10:58:30;;;;;;;;;;;;;;;;;;5065912;28;20368;-71
2021/05/14 11:00:56;;;;;;;;;;;;;;;;;;5069434;28;20354;-71
2021/05/14 11:03:23;;;;;;;;;;;;;;;;;;5064285;28;19971;-69
2021/05/14 11:05:49;;;;;;;;;;;;;;;;;;5066009;28;20395;-69
2021/05/14 11:08:16;;;;;;;;;;;;;;;;;;5065443;28;19928;-69
2021/05/14 11:10:42;;;;;;;;;;;;;;;;;;5065008;28;20512;-70
2021/05/14 11:13:09;;;;;;;;;;;;;;;;;;5060660;28;20339;-70
2021/05/14 11:15:35;;;;;;;;;;;;;;;;;;5062858;28;20007;-71
2021/05/14 11:18:02;;;;;;;;;;;;;;;;;;5063127;28;20008;-71
2021/05/14 11:20:28;;;;;;;;;;;;;;;;;;5064468;28;19924;-71
2021/05/14 11:22:55;;;;;;;;;;;;;;;;;;5062061;28;19936;-71
2021/05/14 11:25:21;;;;;;;;;;;;;;;;;;5062504;28;19939;-71
2021/05/14 11:27:51;;;;;;;;;;;;;;;;;;5065260;28;19931;-71
2021/05/14 11:30:17;;;;;;;;;;;;;;;;;;5059412;28;19925;-72
2021/05/14 11:32:44;;;;;;;;;;;;;;;;;;5063407;28;19929;-73
2021/05/14 11:35:11;;;;;;;;;;;;;;;;;;5063033;28;19982;-73
2021/05/14 11:37:38;;;;;;;;;;;;;;;;;;5059888;28;19971;-72
2021/05/14 11:40:04;;;;;;;;;;;;;;;;;;5058305;28;19925;-72
2021/05/14 11:42:31;;;;;;;;;;;;;;;;;;5061761;28;19924;-71
2021/05/14 11:44:57;;;;;;;;;;;;;;;;;;5062705;28;19935;-72
2021/05/14 11:47:24;;;;;;;;;;;;;;;;;;5061811;28;20015;-73
2021/05/14 11:49:50;;;;;;;;;;;;;;;;;;5061816;28;19935;-72
2021/05/14 11:52:17;;;;;;;;;;;;;;;;;;5063745;28;20019;-71
2021/05/14 11:54:43;;;;;;;;;;;;;;;;;;5067047;28;19932;-71
2021/05/14 11:57:10;;;;;;;;;;;;;;;;;;5062563;28;19975;-71
2021/05/14 11:59:36;;;;;;;;;;;;;;;;;;5063825;28;20011;-71
2021/05/14 12:02:03;;;;;;;;;;;;;;;;;;5063813;28;19964;-72
2021/05/14 12:04:29;;;;;;;;;;;;;;;;;;5059260;28;20808;-73
2021/05/14 12:06:56;;;;;;;;;;;;;;;;;;5062903;28;20016;-72
2021/05/14 12:09:22;;;;;;;;;;;;;;;;;;5060678;28;20419;-72
2021/05/14 12:11:49;;;;;;;;;;;;;;;;;;5059417;28;19928;-72
2021/05/14 12:14:15;;;;;;;;;;;;;;;;;;5060066;28;19924;-71
2021/05/14 12:16:42;;;;;;;;;;;;;;;;;;5062837;28;20006;-72
2021/05/14 12:19:08;;;;;;;;;;;;;;;;;;5060886;28;19983;-74
2021/05/14 12:21:35;;;;;;;;;;;;;;;;;;5061746;28;19928;-73
2021/05/14 12:24:02;;;;;;;;;;;;;;;;;;5063987;28;20019;-71
2021/05/14 12:26:29;;;;;;;;;;;;;;;;;;5060651;28;19936;-72
2021/05/14 12:28:56;;;;;;;;;;;;;;;;;;5063009;28;19932;-71
2021/05/14 12:31:22;;;;;;;;;;;;;;;;;;5063177;28;19928;-71
2021/05/14 12:33:48;;;;;;;;;;;;;;;;;;5061497;28;19999;-71
2021/05/14 12:36:15;;;;;;;;;;;;;;;;;;5057818;28;19928;-71
2021/05/14 12:38:42;;;;;;;;;;;;;;;;;;5062454;28;20016;-71
2021/05/14 12:41:08;;;;;;;;;;;;;;;;;;5063272;28;20475;-71
2021/05/14 12:43:34;;;;;;;;;;;;;;;;;;5063746;28;19934;-74
2021/05/14 12:46:01;;;;;;;;;;;;;;;;;;5069125;22;19912;-75
2021/05/14 12:48:28;;;;;;;;;;;;;;;;;;5045078;28;20360;-72
2021/05/14 12:50:54;;;;;;;;;;;;;;;;;;5049255;28;19925;-72
2021/05/14 12:53:21;;;;;;;;;;;;;;;;;;5048048;28;19951;-72
2021/05/14 12:55:47;;;;;;;;;;;;;;;;;;5042781;28;19925;-72
2021/05/14 12:58:14;;;;;;;;;;;;;;;;;;5039470;28;19925;-72
2021/05/14 13:00:40;;;;;;;;;;;;;;;;;;5060464;28;19924;-70
2021/05/14 13:03:09;;;;;;;;;;;;;;;;;;5062505;28;19932;-71
2021/05/14 13:05:35;;;;;;;;;;;;;;;;;;5067288;28;19925;-71
2021/05/14 13:08:02;;;;;;;;;;;;;;;;;;5059082;28;19924;-70
2021/05/14 13:10:28;;;;;;;;;;;;;;;;;;5054368;28;19925;-70
2021/05/14 13:12:55;;;;;;;;;;;;;;;;;;5053446;28;19971;-68
2021/05/14 13:15:21;;;;;;;;;;;;;;;;;;5045112;28;19929;-71
2021/05/14 13:17:50;;;;;;;;;;;;;;;;;;5040690;28;20016;-71
2021/05/14 13:20:16;;;;;;;;;;;;;;;;;;5047857;28;19932;-71
2021/05/14 13:22:43;;;;;;;;;;;;;;;;;;5045586;28;19925;-72
2021/05/14 13:25:09;;;;;;;;;;;;;;;;;;5041488;28;19972;-71
2021/05/14 13:27:36;;;;;;;;;;;;;;;;;;5043885;28;19925;-71
2021/05/14 13:30:02;;;;;;;;;;;;;;;;;;5050969;28;19967;-71
2021/05/14 13:32:29;;;;;;;;;;;;;;;;;;5047953;28;20553;-72
2021/05/14 13:34:55;;;;;;;;;;;;;;;;;;5051084;28;19986;-72
2021/05/14 13:37:22;;;;;;;;;;;;;;;;;;5054564;28;20019;-72
2021/05/14 13:39:48;;;;;;;;;;;;;;;;;;5055790;28;20011;-71
2021/05/14 13:42:15;;;;;;;;;;;;;;;;;;5055089;28;19924;-72
2021/05/14 13:44:41;;;;;;;;;;;;;;;;;;5052927;28;19925;-72
2021/05/14 13:47:09;;;;;;;;;;;;;;;;;;5050653;28;20426;-72
2021/05/14 13:49:35;;;;;;;;;;;;;;;;;;5058444;28;20308;-71
2021/05/14 13:52:02;;;;;;;;;;;;;;;;;;5051048;28;19988;-71
2021/05/14 13:54:28;;;;;;;;;;;;;;;;;;5041868;28;19933;-70
2021/05/14 13:56:55;;;;;;;;;;;;;;;;;;5048829;28;19929;-71
2021/05/14 13:59:22;;;;;;;;;;;;;;;;;;5053573;28;19925;-72
2021/05/14 14:01:48;;;;;;;;;;;;;;;;;;5054674;28;20092;-68
2021/05/14 14:04:15;;;;;;;;;;;;;;;;;;5050054;28;19976;-68
2021/05/14 14:06:41;;;;;;;;;;;;;;;;;;5049897;28;19932;-73
2021/05/14 14:09:08;;;;;;;;;;;;;;;;;;5053685;28;20007;-71
2021/05/14 14:11:34;;;;;;;;;;;;;;;;;;5052514;28;19924;-71
2021/05/14 14:14:01;;;;;;;;;;;;;;;;;;5058886;28;19924;-71
2021/05/14 14:16:27;;;;;;;;;;;;;;;;;;5055305;28;20011;-72
2021/05/14 14:18:54;;;;;;;;;;;;;;;;;;5053548;28;20393;-71
2021/05/14 14:21:20;;;;;;;;;;;;;;;;;;5052256;28;19931;-72
2021/05/14 14:23:47;;;;;;;;;;;;;;;;;;5051520;28;19925;-71
2021/05/14 14:26:13;;;;;;;;;;;;;;;;;;5044557;28;19967;-70
2021/05/14 14:28:40;;;;;;;;;;;;;;;;;;5045046;28;19925;-71
2021/05/14 14:31:06;;;;;;;;;;;;;;;;;;5050897;28;19925;-69
2021/05/14 14:33:33;;;;;;;;;;;;;;;;;;5052535;28;19925;-72
2021/05/14 14:35:59;;;;;;;;;;;;;;;;;;5045139;28;20295;-70
2021/05/14 14:38:26;;;;;;;;;;;;;;;;;;5050183;28;19931;-70
2021/05/14 14:40:52;;;;;;;;;;;;;;;;;;5048229;28;19990;-75
2021/05/14 14:43:19;;;;;;;;;;;;;;;;;;5044678;28;19969;-72
2021/05/14 14:45:47;;;;;;;;;;;;;;;;;;5042772;28;20019;-70
2021/05/14 14:48:15;;;;;;;;;;;;;;;;;;5041911;28;19929;-71
2021/05/14 14:50:41;;;;;;;;;;;;;;;;;;5053771;28;19925;-71
2021/05/14 14:53:08;;;;;;;;;;;;;;;;;;5050822;28;19928;-71
2021/05/14 14:55:34;;;;;;;;;;;;;;;;;;5049858;28;19925;-69
2021/05/14 14:58:01;;;;;;;;;;;;;;;;;;5047189;28;20269;-70
2021/05/14 15:00:30;;;;;;;;;;;;;;;;;;5045223;28;19948;-72
2021/05/14 15:02:57;;;;;;;;;;;;;;;;;;5040056;28;20458;-70
2021/05/14 15:05:23;;;;;;;;;;;;;;;;;;5047244;28;20019;-70
2021/05/14 15:07:50;;;;;;;;;;;;;;;;;;5049797;28;19924;-70
2021/05/14 15:10:18;;;;;;;;;;;;;;;;;;5043601;28;19956;-70
2021/05/14 15:12:45;;;;;;;;;;;;;;;;;;5045662;28;20908;-68
2021/05/14 15:15:11;;;;;;;;;;;;;;;;;;5044796;28;19943;-72
2021/05/14 15:17:38;;;;;;;;;;;;;;;;;;5041025;28;19924;-70
2021/05/14 15:20:04;;;;;;;;;;;;;;;;;;5041901;28;20012;-69
2021/05/14 15:22:31;;;;;;;;;;;;;;;;;;5045169;28;19931;-68
2021/05/14 15:24:59;;;;;;;;;;;;;;;;;;5042739;28;19925;-71
2021/05/14 15:27:26;;;;;;;;;;;;;;;;;;5045402;28;19960;-71
2021/05/14 15:29:52;;;;;;;;;;;;;;;;;;5043913;28;19931;-72
2021/05/14 15:32:23;;;;;;;;;;;;;;;;;;5046133;28;19928;-68
2021/05/14 15:34:49;;;;;;;;;;;;;;;;;;5042902;28;19928;-69
2021/05/14 15:37:16;;;;;;;;;;;;;;;;;;5042541;28;20207;-69
2021/05/14 15:39:42;;;;;;;;;;;;;;;;;;5042380;28;19970;-69
2021/05/14 15:42:09;;;;;;;;;;;;;;;;;;5044112;28;20308;-68
2021/05/14 15:44:35;;;;;;;;;;;;;;;;;;5047578;28;20335;-68
2021/05/14 15:47:02;;;;;;;;;;;;;;;;;;5042889;28;19960;-69
2021/05/14 15:49:28;;;;;;;;;;;;;;;;;;5045508;28;20024;-72
2021/05/14 15:51:55;;;;;;;;;;;;;;;;;;5041943;28;19988;-70
2021/05/14 15:54:21;;;;;;;;;;;;;;;;;;5045563;28;20296;-73
2021/05/14 15:56:48;;;;;;;;;;;;;;;;;;5046626;28;20023;-73
2021/05/14 15:59:15;;;;;;;;;;;;;;;;;;5046336;28;20019;-71
2021/05/14 16:01:41;;;;;;;;;;;;;;;;;;5046213;28;20028;-72
2021/05/14 16:04:07;;;;;;;;;;;;;;;;;;5043050;28;19928;-72
2021/05/14 16:06:34;;;;;;;;;;;;;;;;;;5048409;28;19925;-73
2021/05/14 16:09:00;;;;;;;;;;;;;;;;;;5042290;28;19935;-70
2021/05/14 16:11:27;;;;;;;;;;;;;;;;;;5044434;28;19925;-71
2021/05/14 16:13:54;;;;;;;;;;;;;;;;;;5046810;28;20377;-71
2021/05/14 16:16:20;;;;;;;;;;;;;;;;;;5043201;28;20031;-72
2021/05/14 16:18:50;;;;;;;;;;;;;;;;;;5042267;28;19929;-73
2021/05/14 16:21:16;;;;;;;;;;;;;;;;;;5041535;28;19925;-71
2021/05/14 16:23:43;;;;;;;;;;;;;;;;;;5044273;28;21382;-73
2021/05/14 16:26:09;;;;;;;;;;;;;;;;;;5044981;28;19928;-73
2021/05/14 16:28:36;;;;;;;;;;;;;;;;;;5045030;28;19925;-71
2021/05/14 16:31:02;;;;;;;;;;;;;;;;;;5043984;28;19925;-71
2021/05/14 16:33:29;;;;;;;;;;;;;;;;;;5046178;28;19929;-70
2021/05/14 16:35:57;;;;;;;;;;;;;;;;;;5039758;28;19925;-71
2021/05/14 16:38:23;;;;;;;;;;;;;;;;;;5046035;28;20039;-72
2021/05/14 16:40:50;;;;;;;;;;;;;;;;;;5045508;28;20035;-72
2021/05/14 16:43:16;;;;;;;;;;;;;;;;;;5043508;28;20011;-72